createdAt,value
2024-02-12T00:01:30.745Z,99675.34
2024-02-12T00:04:04.319Z,99673.09
2024-02-12T00:06:37.636Z,99687.25
2024-02-12T00:09:14.067Z,99679.44
2024-02-12T00:11:47.524Z,99684.09
2024-02-12T00:14:21.155Z,99685.75
2024-02-12T00:16:55.877Z,99678.75
2024-02-12T00:19:30.116Z,99682.00
2024-02-12T00:22:03.135Z,99685.09
2024-02-12T00:24:38.410Z,99685.09
2024-02-12T00:27:12.418Z,99684.31
2024-02-12T00:29:45.643Z,99696.13
2024-02-12T00:32:18.903Z,99692.16
2024-02-12T00:34:52.161Z,99692.16
2024-02-12T00:37:27.396Z,99702.34
2024-02-12T00:40:01.792Z,99703.47
2024-02-12T00:42:35.968Z,99699.16
2024-02-12T00:45:10.556Z,99700.66
2024-02-12T00:47:43.924Z,99705.88
2024-02-12T00:50:17.094Z,99708.66
2024-02-12T00:52:51.016Z,99705.81
2024-02-12T00:55:25.649Z,99708.25
2024-02-12T00:58:00.748Z,99709.47
2024-02-12T01:00:33.887Z,99708.34
2024-02-12T01:03:07.770Z,99713.00
2024-02-12T01:05:41.081Z,99705.50
2024-02-12T01:08:14.433Z,99711.09
2024-02-12T01:10:49.256Z,99716.53
2024-02-12T01:13:22.527Z,99711.44
2024-02-12T01:15:56.188Z,99720.91
2024-02-12T01:18:30.560Z,99716.97
2024-02-12T01:21:04.301Z,99717.38
2024-02-12T01:23:37.689Z,99716.59
2024-02-12T01:26:14.686Z,99718.13
2024-02-12T01:28:47.761Z,99720.44
2024-02-12T01:31:20.967Z,99718.50
2024-02-12T01:33:54.104Z,99721.28
2024-02-12T01:36:28.269Z,99719.72
2024-02-12T01:39:01.916Z,99722.84
2024-02-12T01:41:38.165Z,99724.41
2024-02-12T01:44:11.347Z,99724.44
2024-02-12T01:46:50.067Z,99733.50
2024-02-12T01:49:24.323Z,99741.00
2024-02-12T01:51:57.314Z,99745.38
2024-02-12T01:54:30.862Z,99745.72
2024-02-12T01:57:06.709Z,99754.47
2024-02-12T01:59:41.163Z,99753.28
2024-02-12T02:02:16.287Z,99754.53
2024-02-12T02:04:55.541Z,99751.00
2024-02-12T02:07:28.861Z,99755.34
2024-02-12T02:10:02.918Z,99758.50
2024-02-12T02:12:37.735Z,99759.31
2024-02-12T02:15:11.931Z,99763.22
2024-02-12T02:17:45.128Z,99765.56
2024-02-12T02:20:22.043Z,99764.78
2024-02-12T02:22:55.686Z,99767.97
2024-02-12T02:25:30.493Z,99774.94
2024-02-12T02:28:06.193Z,99771.41
2024-02-12T02:30:40.324Z,99776.50
2024-02-12T02:33:13.937Z,99784.06
2024-02-12T02:35:49.229Z,99784.41
2024-02-12T02:38:24.167Z,99787.94
2024-02-12T02:40:58.812Z,99788.38
2024-02-12T02:43:32.761Z,99792.75
2024-02-12T02:46:06.337Z,99790.03
2024-02-12T02:48:41.193Z,99800.63
2024-02-12T02:51:15.514Z,99790.78
2024-02-12T02:53:48.580Z,99789.22
2024-02-12T02:56:23.780Z,99791.97
2024-02-12T02:58:57.333Z,99786.72
2024-02-12T03:01:31.082Z,99786.72
2024-02-12T03:04:04.409Z,99785.16
2024-02-12T03:06:38.902Z,99787.41
2024-02-12T03:09:12.084Z,99787.38
2024-02-12T03:11:46.632Z,99787.72
2024-02-12T03:14:19.863Z,99790.44
2024-02-12T03:16:55.089Z,99784.41
2024-02-12T03:19:28.125Z,99789.09
2024-02-12T03:22:01.184Z,99795.22
2024-02-12T03:24:34.308Z,99799.94
2024-02-12T03:27:09.513Z,99796.84
2024-02-12T03:29:43.981Z,99796.06
2024-02-12T03:32:17.082Z,99807.47
2024-02-12T03:34:50.148Z,99805.88
2024-02-12T03:37:23.072Z,99809.00
2024-02-12T03:39:55.945Z,99806.25
2024-02-12T03:42:30.542Z,99814.16
2024-02-12T03:45:06.277Z,99807.44
2024-02-12T03:47:41.036Z,99811.81
2024-02-12T03:50:35.036Z,99825.19
2024-02-12T03:53:29.178Z,99819.97
2024-02-12T03:56:19.904Z,99817.25
2024-02-12T03:59:12.643Z,99817.34
2024-02-12T04:01:45.635Z,99823.56
2024-02-12T04:04:20.491Z,99832.94
2024-02-12T04:06:53.967Z,99832.94
2024-02-12T04:09:27.832Z,99840.81
2024-02-12T04:12:01.049Z,99848.72
2024-02-12T04:14:35.590Z,99848.34
2024-02-12T04:17:10.720Z,99849.91
2024-02-12T04:19:45.527Z,99853.09
2024-02-12T04:22:19.244Z,99858.25
2024-02-12T04:24:52.416Z,99862.91
2024-02-12T04:27:25.815Z,99867.22
2024-02-12T04:30:00.325Z,99867.63
2024-02-12T04:32:35.052Z,99866.00
2024-02-12T04:35:09.560Z,99868.78
2024-02-12T04:37:46.661Z,99867.53
2024-02-12T04:40:20.483Z,99872.28
2024-02-12T04:42:54.912Z,99866.75
2024-02-12T04:45:32.024Z,99881.75
2024-02-12T04:48:13.523Z,99881.78
2024-02-12T04:50:46.926Z,99878.63
2024-02-12T04:53:20.286Z,99881.78
2024-02-12T04:55:53.574Z,99881.44
2024-02-12T04:58:26.697Z,99886.53
2024-02-12T05:01:02.888Z,99899.59
2024-02-12T05:03:37.480Z,99894.50
2024-02-12T05:06:17.076Z,99890.59
2024-02-12T05:08:51.680Z,99899.63
2024-02-12T05:11:27.180Z,99898.50
2024-02-12T05:14:00.689Z,99896.94
2024-02-12T05:16:35.572Z,99900.06
2024-02-12T05:19:26.692Z,99904.75
2024-02-12T05:22:18.468Z,99905.91
2024-02-12T05:24:51.556Z,99914.56
2024-02-12T05:27:25.571Z,99908.31
2024-02-12T05:29:59.100Z,99914.69
2024-02-12T05:32:33.970Z,99920.59
2024-02-12T05:35:09.782Z,99916.59
2024-02-12T05:37:42.727Z,99919.41
2024-02-12T05:40:16.665Z,99911.06
2024-02-12T05:42:50.920Z,99910.38
2024-02-12T05:45:24.038Z,99919.81
2024-02-12T05:47:58.967Z,99921.44
2024-02-12T05:50:32.537Z,99916.69
2024-02-12T05:53:06.420Z,99918.25
2024-02-12T05:55:41.020Z,99926.94
2024-02-12T05:58:15.783Z,99916.78
2024-02-12T06:01:18.736Z,99921.53
2024-02-12T06:03:53.584Z,99929.38
2024-02-12T06:06:27.224Z,99938.13
2024-02-12T06:09:00.481Z,99932.59
2024-02-12T06:11:33.767Z,99941.31
2024-02-12T06:14:09.228Z,99940.56
2024-02-12T06:16:42.518Z,99938.22
2024-02-12T06:19:17.425Z,99942.97
2024-02-12T06:21:50.534Z,99938.28
2024-02-12T06:24:24.010Z,99941.34
2024-02-12T06:26:58.000Z,99939.38
2024-02-12T06:29:31.106Z,99944.06
2024-02-12T06:32:04.587Z,99948.84
2024-02-12T06:34:39.001Z,99957.09
2024-02-12T06:37:12.670Z,99951.59
2024-02-12T06:39:45.811Z,99954.00
2024-02-12T06:42:19.746Z,99960.34
2024-02-12T06:44:55.319Z,99966.28
2024-02-12T06:47:31.032Z,99971.44
2024-02-12T06:50:07.876Z,99970.69
2024-02-12T06:52:42.320Z,99973.06
2024-02-12T06:55:17.073Z,99977.81
2024-02-12T06:57:50.304Z,99977.81
2024-02-12T07:00:23.226Z,99981.41
2024-02-12T07:02:57.219Z,99994.34
2024-02-12T07:05:31.986Z,100004.66
2024-02-12T07:08:06.507Z,100003.44
2024-02-12T07:10:40.079Z,100001.88
2024-02-12T07:13:13.203Z,100008.34
2024-02-12T07:15:46.584Z,100020.53
2024-02-12T07:18:19.417Z,100020.13
2024-02-12T07:20:53.828Z,100023.31
2024-02-12T07:23:27.943Z,100023.72
2024-02-12T07:26:00.932Z,100028.06
2024-02-12T07:28:34.269Z,100039.44
2024-02-12T07:31:09.120Z,100044.91
2024-02-12T07:33:42.220Z,100044.13
2024-02-12T07:36:16.597Z,100046.53
2024-02-12T07:38:49.611Z,100052.84
2024-02-12T07:41:23.801Z,100054.44
2024-02-12T07:43:59.329Z,100057.56
2024-02-12T07:46:33.141Z,100059.19
2024-02-12T07:49:07.406Z,100064.69
2024-02-12T07:51:42.078Z,100063.13
2024-02-12T07:54:15.446Z,100072.56
2024-02-12T07:56:49.873Z,100078.91
2024-02-12T07:59:23.327Z,100084.41
2024-02-12T08:01:57.041Z,100091.47
2024-02-12T08:04:30.370Z,100096.56
2024-02-12T08:07:06.353Z,100096.97
2024-02-12T08:09:39.705Z,100103.22
2024-02-12T08:12:14.538Z,100102.00
2024-02-12T08:14:47.539Z,100105.47
2024-02-12T08:17:28.227Z,100106.06
2024-02-12T08:20:09.888Z,100101.91
2024-02-12T08:22:50.734Z,100103.91
2024-02-12T08:25:24.536Z,100120.63
2024-02-12T08:27:57.974Z,100124.25
2024-02-12T08:30:32.904Z,100132.34
2024-02-12T08:33:06.769Z,100140.00
2024-02-12T08:35:43.969Z,100132.44
2024-02-12T08:38:20.047Z,100141.28
2024-02-12T08:40:52.944Z,100141.47
2024-02-12T08:43:25.707Z,100148.72
2024-02-12T08:45:58.815Z,100141.94
2024-02-12T08:48:33.589Z,100147.19
2024-02-12T08:51:07.251Z,100154.53
2024-02-12T08:53:45.365Z,100152.75
2024-02-12T08:56:19.871Z,100163.09
2024-02-12T08:58:56.733Z,100164.63
2024-02-12T09:01:29.814Z,100169.41
2024-02-12T09:04:06.097Z,100171.78
2024-02-12T09:06:39.802Z,100171.41
2024-02-12T09:09:15.251Z,100181.38
2024-02-12T09:11:48.257Z,100183.78
2024-02-12T09:14:23.885Z,100182.28
2024-02-12T09:16:57.264Z,100201.78
2024-02-12T09:19:31.198Z,100192.38
2024-02-12T09:22:05.465Z,100199.47
2024-02-12T09:24:41.240Z,100210.53
2024-02-12T09:27:14.389Z,100204.19
2024-02-12T09:29:48.621Z,100216.00
2024-02-12T09:32:22.760Z,100211.31
2024-02-12T09:34:58.696Z,100214.44
2024-02-12T09:37:34.077Z,100222.28
2024-02-12T09:40:13.035Z,100219.13
2024-02-12T09:42:46.987Z,100220.66
2024-02-12T09:45:20.998Z,100227.72
2024-02-12T09:47:56.855Z,100231.69
2024-02-12T09:50:33.239Z,100235.16
2024-02-12T09:53:10.483Z,100238.75
2024-02-12T09:55:49.478Z,100243.44
2024-02-12T09:58:22.821Z,100253.28
2024-02-12T10:00:55.845Z,100252.88
2024-02-12T10:03:29.976Z,100257.56
2024-02-12T10:06:04.037Z,100254.47
2024-02-12T10:08:37.292Z,100263.06
2024-02-12T10:11:11.824Z,100260.63
2024-02-12T10:13:52.243Z,100266.84
2024-02-12T10:16:28.124Z,100275.47
2024-02-12T10:19:04.504Z,100281.34
2024-02-12T10:21:39.975Z,100275.84
2024-02-12T10:24:13.253Z,100278.66
2024-02-12T10:26:51.187Z,100286.50
2024-02-12T10:29:24.298Z,100291.19
2024-02-12T10:31:58.762Z,100288.38
2024-02-12T10:34:34.659Z,100306.88
2024-02-12T10:37:10.578Z,100301.34
2024-02-12T10:39:46.566Z,100304.84
2024-02-12T10:42:26.540Z,100310.78
2024-02-12T10:45:00.871Z,100315.41
2024-02-12T10:47:35.381Z,100317.75
2024-02-12T10:50:14.356Z,100320.13
2024-02-12T10:52:50.136Z,100323.59
2024-02-12T10:55:25.835Z,100325.09
2024-02-12T10:58:01.261Z,100328.69
2024-02-12T11:00:43.526Z,100329.75
2024-02-12T11:03:33.907Z,100331.69
2024-02-12T11:06:09.949Z,100329.28
2024-02-12T11:08:45.045Z,100322.81
2024-02-12T11:11:20.657Z,100329.00
2024-02-12T11:14:03.030Z,100331.69
2024-02-12T11:16:40.591Z,100339.88
2024-02-12T11:19:19.719Z,100331.88
2024-02-12T11:21:59.566Z,100344.91
2024-02-12T11:24:41.052Z,100335.44
2024-02-12T11:27:17.404Z,100349.25
2024-02-12T11:29:52.067Z,100351.59
2024-02-12T11:32:25.400Z,100361.06
2024-02-12T11:35:00.430Z,100367.50
2024-02-12T11:37:33.989Z,100363.09
2024-02-12T11:40:12.816Z,100367.00
2024-02-12T11:42:50.724Z,100366.47
2024-02-12T11:45:26.770Z,100374.44
2024-02-12T11:48:09.668Z,100381.50
2024-02-12T11:50:43.021Z,100371.94
2024-02-12T11:53:16.271Z,100379.69
2024-02-12T11:55:50.311Z,100380.66
2024-02-12T11:58:23.654Z,100386.06
2024-02-12T12:00:59.823Z,100380.75
2024-02-12T12:03:33.954Z,100394.19
2024-02-12T12:06:15.068Z,100396.66
2024-02-12T12:08:49.825Z,100399.91
2024-02-12T12:11:24.277Z,100401.56
2024-02-12T12:14:00.830Z,100400.25
2024-02-12T12:16:37.664Z,100398.97
2024-02-12T12:19:11.555Z,100393.44
2024-02-12T12:21:45.576Z,100398.72
2024-02-12T12:24:19.008Z,100402.88
2024-02-12T12:26:56.272Z,100398.00
2024-02-12T12:29:30.188Z,100406.97
2024-02-12T12:32:15.101Z,100404.50
2024-02-12T12:34:48.642Z,100419.19
2024-02-12T12:37:21.763Z,100415.22
2024-02-12T12:39:57.435Z,100426.44
2024-02-12T12:42:31.768Z,100426.44
2024-02-12T12:45:05.654Z,100429.56
2024-02-12T12:47:40.423Z,100434.00
2024-02-12T12:50:15.785Z,100440.91
2024-02-12T12:52:48.952Z,100437.28
2024-02-12T12:55:22.215Z,100437.59
2024-02-12T12:57:55.625Z,100446.09
2024-02-12T13:00:30.174Z,100445.59
2024-02-12T13:03:06.807Z,100440.53
2024-02-12T13:05:43.100Z,100452.88
2024-02-12T13:08:21.633Z,100452.16
2024-02-12T13:10:56.778Z,100452.44
2024-02-12T13:13:31.151Z,100447.72
2024-02-12T13:16:06.624Z,100463.28
2024-02-12T13:18:46.978Z,100458.97
2024-02-12T13:21:20.412Z,100464.59
2024-02-12T13:23:54.542Z,100466.81
2024-02-12T13:26:27.689Z,100466.81
2024-02-12T13:29:00.959Z,100473.44
2024-02-12T13:31:35.908Z,100468.84
2024-02-12T13:34:11.799Z,100471.56
2024-02-12T13:36:50.937Z,100468.28
2024-02-12T13:39:26.936Z,100476.47
2024-02-12T13:41:59.884Z,100479.19
2024-02-12T13:44:34.319Z,100484.78
2024-02-12T13:47:08.456Z,100485.56
2024-02-12T13:49:44.709Z,100491.03
2024-02-12T13:52:18.803Z,100491.84
2024-02-12T13:54:56.376Z,100494.91
2024-02-12T13:57:29.505Z,100504.41
2024-02-12T14:00:23.680Z,100504.38
2024-02-12T14:02:56.010Z,100507.53
2024-02-12T14:05:31.786Z,100509.16
2024-02-12T14:08:06.386Z,100517.50
2024-02-12T14:10:39.958Z,100518.38
2024-02-12T14:13:14.097Z,100527.81
2024-02-12T14:16:05.000Z,100531.72
2024-02-12T14:18:44.066Z,100540.97
2024-02-12T14:21:19.924Z,100544.66
2024-02-12T14:23:53.166Z,100550.97
2024-02-12T14:26:28.410Z,100552.56
2024-02-12T14:29:02.518Z,100562.06
2024-02-12T14:32:34.209Z,100564.75
2024-02-12T14:34:31.483Z,100567.09
2024-02-12T14:37:06.664Z,100572.66
2024-02-12T14:39:40.712Z,100583.03
2024-02-12T14:42:14.122Z,100572.41
2024-02-12T14:45:02.468Z,100581.72
2024-02-12T14:47:45.840Z,100591.78
2024-02-12T14:50:23.269Z,100594.09
2024-02-12T14:52:58.097Z,100591.56
2024-02-12T14:55:32.142Z,100596.66
2024-02-12T14:58:06.810Z,100597.09
2024-02-12T15:00:40.585Z,100593.56
2024-02-12T15:03:13.994Z,100604.53
2024-02-12T15:05:48.087Z,100605.78
2024-02-12T15:08:22.843Z,100613.31
2024-02-12T15:10:55.901Z,100620.41
2024-02-12T15:13:33.743Z,100624.50
2024-02-12T15:16:08.459Z,100630.06
2024-02-12T15:18:43.690Z,100634.50
2024-02-12T15:21:18.262Z,100635.63
2024-02-12T15:23:52.910Z,100633.25
2024-02-12T15:26:26.018Z,100646.25
2024-02-12T15:28:59.357Z,100655.75
2024-02-12T15:31:32.876Z,100650.25
2024-02-12T15:34:07.486Z,100652.31
2024-02-12T15:36:42.136Z,100662.59
2024-02-12T15:39:16.902Z,100658.69
2024-02-12T15:41:50.371Z,100663.44
2024-02-12T15:44:24.004Z,100672.16
2024-02-12T15:47:03.301Z,100672.22
2024-02-12T15:49:37.790Z,100680.81
2024-02-12T15:52:12.123Z,100684.00
2024-02-12T15:54:50.481Z,100691.22
2024-02-12T15:57:27.450Z,100699.00
2024-02-12T16:00:00.865Z,100695.88
2024-02-12T16:02:33.887Z,100700.56
2024-02-12T16:05:49.437Z,100706.19
2024-02-12T16:08:22.631Z,100708.50
2024-02-12T16:10:58.867Z,100712.88
2024-02-12T16:13:32.731Z,100721.16
2024-02-12T16:16:07.752Z,100721.53
2024-02-12T16:18:41.591Z,100727.84
2024-02-12T16:21:18.372Z,100732.16
2024-02-12T16:23:52.738Z,100733.72
2024-02-12T16:26:28.161Z,100744.03
2024-02-12T16:29:03.280Z,100741.69
2024-02-12T16:31:41.318Z,100748.34
2024-02-12T16:34:15.632Z,100757.47
2024-02-12T16:36:49.920Z,100763.81
2024-02-12T16:39:23.870Z,100758.31
2024-02-12T16:41:59.192Z,100764.22
2024-02-12T16:44:32.210Z,100766.59
2024-02-12T16:47:05.505Z,100777.25
2024-02-12T16:49:40.864Z,100782.78
2024-02-12T16:52:15.205Z,100784.38
2024-02-12T16:54:48.914Z,100790.66
2024-02-12T16:57:23.456Z,100797.75
2024-02-12T16:59:58.445Z,100805.63
2024-02-12T17:02:31.926Z,100806.44
2024-02-12T17:05:06.359Z,100813.91
2024-02-12T17:07:49.383Z,100813.53
2024-02-12T17:10:31.021Z,100815.88
2024-02-12T17:13:06.913Z,100818.63
2024-02-12T17:15:41.639Z,100826.53
2024-02-12T17:18:15.483Z,100828.53
2024-02-12T17:20:50.668Z,100841.91
2024-02-12T17:23:25.109Z,100843.50
2024-02-12T17:25:58.407Z,100845.09
2024-02-12T17:28:33.193Z,100850.59
2024-02-12T17:31:07.436Z,100856.94
2024-02-12T17:33:40.766Z,100864.00
2024-02-12T17:36:15.277Z,100864.81
2024-02-12T17:38:48.969Z,100874.25
2024-02-12T17:41:22.276Z,100877.41
2024-02-12T17:43:58.522Z,100878.19
2024-02-12T17:46:32.157Z,100885.28
2024-02-12T17:49:07.596Z,100890.00
2024-02-12T17:51:40.788Z,100892.75
2024-02-12T17:54:15.778Z,100903.41
2024-02-12T17:56:51.129Z,100912.47
2024-02-12T17:59:29.782Z,100918.34
2024-02-12T18:02:02.785Z,100914.41
2024-02-12T18:04:37.095Z,100916.78
2024-02-12T18:07:14.272Z,100920.72
2024-02-12T18:09:47.698Z,100929.00
2024-02-12T18:12:22.995Z,100932.53
2024-02-12T18:14:58.122Z,100933.31
2024-02-12T18:17:31.812Z,100941.19
2024-02-12T18:20:06.361Z,100940.38
2024-02-12T18:22:39.410Z,100949.06
2024-02-12T18:25:13.111Z,100949.09
2024-02-12T18:27:49.899Z,100956.16
2024-02-12T18:30:24.457Z,100949.06
2024-02-12T18:32:58.056Z,100956.13
2024-02-12T18:35:31.362Z,100962.44
2024-02-12T18:38:07.915Z,100967.94
2024-02-12T18:40:41.074Z,100972.66
2024-02-12T18:43:17.579Z,100976.97
2024-02-12T18:45:53.006Z,100975.81
2024-02-12T18:48:26.230Z,100973.06
2024-02-12T18:51:01.223Z,100980.50
2024-02-12T18:53:37.641Z,100984.81
2024-02-12T18:56:11.248Z,100983.25
2024-02-12T18:58:50.259Z,100979.28
2024-02-12T19:01:25.172Z,100992.25
2024-02-12T19:04:01.870Z,100997.38
2024-02-12T19:06:35.313Z,100997.78
2024-02-12T19:09:11.581Z,101000.94
2024-02-12T19:11:47.556Z,101004.84
2024-02-12T19:14:20.896Z,101004.44
2024-02-12T19:16:55.597Z,101003.97
2024-02-12T19:19:28.651Z,101004.75
2024-02-12T19:22:05.314Z,101006.72
2024-02-12T19:24:41.155Z,101010.25
2024-02-12T19:27:18.155Z,101007.06
2024-02-12T19:29:53.251Z,101007.06
2024-02-12T19:32:32.803Z,101008.69
2024-02-12T19:35:12.298Z,101012.63
2024-02-12T19:37:49.174Z,101015.38
2024-02-12T19:40:25.844Z,101005.53
2024-02-12T19:42:59.149Z,101013.03
2024-02-12T19:45:33.792Z,101011.00
2024-02-12T19:48:09.759Z,101015.69
2024-02-12T19:50:42.945Z,101018.78
2024-02-12T19:53:16.695Z,101028.63
2024-02-12T19:55:50.526Z,101030.59
2024-02-12T19:58:24.001Z,101027.84
2024-02-12T20:01:02.751Z,101027.00
2024-02-12T20:03:39.796Z,101036.88
2024-02-12T20:06:15.472Z,101036.00
2024-02-12T20:08:48.722Z,101038.81
2024-02-12T20:11:22.061Z,101041.53
2024-02-12T20:13:55.485Z,101052.53
2024-02-12T20:16:33.694Z,101048.56
2024-02-12T20:19:09.172Z,101050.13
2024-02-12T20:21:42.522Z,101054.06
2024-02-12T20:24:15.772Z,101053.25
2024-02-12T20:26:52.947Z,101055.22
2024-02-12T20:29:26.959Z,101065.78
2024-02-12T20:32:02.639Z,101066.13
2024-02-12T20:34:38.884Z,101069.22
2024-02-12T20:37:12.792Z,101069.53
2024-02-12T20:39:48.233Z,101077.41
2024-02-12T20:42:21.910Z,101077.00
2024-02-12T20:44:55.440Z,101071.06
2024-02-12T20:47:28.426Z,101078.16
2024-02-12T20:50:08.389Z,101071.84
2024-02-12T20:52:43.824Z,101081.34
2024-02-12T20:55:18.423Z,101081.38
2024-02-12T20:57:51.490Z,101083.75
2024-02-12T21:00:25.017Z,101080.97
2024-02-12T21:02:58.765Z,101089.19
2024-02-12T21:05:34.123Z,101090.31
2024-02-12T21:08:09.088Z,101093.84
2024-02-12T21:10:43.512Z,101093.06
2024-02-12T21:13:16.760Z,101093.84
2024-02-12T21:15:49.747Z,101102.53
2024-02-12T21:18:22.793Z,101105.69
2024-02-12T21:20:58.674Z,101104.94
2024-02-12T21:23:32.114Z,101108.91
2024-02-12T21:26:07.810Z,101110.44
2024-02-12T21:28:40.929Z,101108.13
2024-02-12T21:31:14.087Z,101104.94
2024-02-12T21:33:49.026Z,101106.09
2024-02-12T21:36:25.452Z,101121.44
2024-02-12T21:38:58.929Z,101119.88
2024-02-12T21:41:52.356Z,101129.69
2024-02-12T21:44:25.540Z,101127.72
2024-02-12T21:46:59.180Z,101128.06
2024-02-12T21:49:32.803Z,101131.16
2024-02-12T21:52:08.396Z,101121.28
2024-02-12T21:54:43.108Z,101128.34
2024-02-12T21:57:16.487Z,101134.16
2024-02-12T21:59:52.062Z,101132.91
2024-02-12T22:02:25.758Z,101140.75
2024-02-12T22:04:58.872Z,101138.00
2024-02-12T22:07:33.862Z,101137.59
2024-02-12T22:10:07.847Z,101134.84
2024-02-12T22:12:43.820Z,101136.75
2024-02-12T22:15:18.863Z,101138.34
2024-02-12T22:17:52.186Z,101140.75
2024-02-12T22:20:25.235Z,101153.25
2024-02-12T22:22:59.754Z,101151.34
2024-02-12T22:25:32.911Z,101157.19
2024-02-12T22:28:08.941Z,101160.25
2024-02-12T22:30:42.363Z,101164.13
2024-02-12T22:33:16.823Z,101172.66
2024-02-12T22:35:54.767Z,101181.25
2024-02-12T22:38:29.883Z,101178.00
2024-02-12T22:41:03.888Z,101179.31
2024-02-12T22:43:36.905Z,101189.41
2024-02-12T22:46:11.351Z,101183.91
2024-02-12T22:48:45.176Z,101183.81
2024-02-12T22:51:19.087Z,101183.91
2024-02-12T22:53:54.623Z,101191.75
2024-02-12T22:56:30.224Z,101202.06
2024-02-12T22:59:08.059Z,101200.41
2024-02-12T23:01:41.449Z,101194.91
2024-02-12T23:04:14.883Z,101202.75
2024-02-12T23:06:48.327Z,101204.34
2024-02-12T23:09:25.002Z,101210.06
2024-02-12T23:11:58.781Z,101206.50
2024-02-12T23:14:32.038Z,101214.03
2024-02-12T23:17:05.583Z,101222.31
2024-02-12T23:19:39.554Z,101220.75
2024-02-12T23:22:14.456Z,101221.13
2024-02-12T23:24:49.136Z,101221.81
2024-02-12T23:27:22.316Z,101222.97
2024-02-12T23:29:59.694Z,101225.72
2024-02-12T23:32:34.068Z,101231.22
2024-02-12T23:35:09.712Z,101233.91
2024-02-12T23:37:42.687Z,101231.50
2024-02-12T23:40:17.703Z,101235.88
2024-02-12T23:42:53.240Z,101229.25
2024-02-12T23:45:26.663Z,101237.03
2024-02-12T23:48:00.161Z,101246.47
2024-02-12T23:50:34.051Z,101240.16
2024-02-12T23:53:07.214Z,101240.97
2024-02-12T23:55:41.879Z,101234.63
2024-02-12T23:58:15.033Z,101240.44
